createdAt,value
2023-05-16T00:00:12.240Z,9.97
2023-05-16T00:03:20.953Z,10.04
2023-05-16T00:06:29.127Z,9.98
2023-05-16T00:09:37.267Z,10.03
2023-05-16T00:12:50.056Z,9.79
2023-05-16T00:15:59.454Z,9.86
2023-05-16T00:19:07.790Z,9.85
2023-05-16T00:22:16.579Z,9.78
2023-05-16T00:25:24.813Z,9.68
2023-05-16T00:28:34.241Z,9.78
2023-05-16T00:31:42.546Z,9.95
2023-05-16T00:34:50.867Z,9.99
2023-05-16T00:37:59.004Z,9.88
2023-05-16T00:41:07.154Z,9.88
2023-05-16T00:44:16.646Z,9.87
2023-05-16T00:47:24.756Z,9.90
2023-05-16T00:50:35.257Z,9.97
2023-05-16T00:53:44.418Z,9.86
2023-05-16T00:56:53.102Z,9.91
2023-05-16T01:00:03.090Z,10.00
2023-05-16T01:03:11.970Z,10.02
2023-05-16T01:06:20.831Z,10.02
2023-05-16T01:09:29.549Z,10.13
2023-05-16T01:12:47.181Z,10.03
2023-05-16T01:16:10.926Z,9.87
2023-05-16T01:19:47.195Z,9.88
2023-05-16T01:23:28.888Z,9.89
2023-05-16T01:26:39.594Z,9.88
2023-05-16T01:29:48.271Z,9.77
2023-05-16T01:32:56.865Z,9.79
2023-05-16T01:36:15.032Z,9.77
2023-05-16T01:39:34.007Z,9.80
2023-05-16T01:42:49.577Z,9.80
2023-05-16T01:46:06.338Z,9.82
2023-05-16T01:49:24.297Z,9.93
2023-05-16T01:52:43.459Z,9.88
2023-05-16T01:55:54.560Z,9.89
2023-05-16T01:59:05.178Z,9.82
2023-05-16T02:02:13.873Z,9.75
2023-05-16T02:05:22.153Z,9.80
2023-05-16T02:08:31.187Z,9.92
2023-05-16T02:11:39.667Z,9.85
2023-05-16T02:14:49.548Z,9.88
2023-05-16T02:17:58.656Z,9.74
2023-05-16T02:21:07.101Z,9.77
2023-05-16T02:24:17.934Z,9.79
2023-05-16T02:27:26.322Z,9.79
2023-05-16T02:30:35.803Z,9.91
2023-05-16T02:33:43.968Z,9.84
2023-05-16T02:36:52.042Z,9.83
2023-05-16T02:40:00.194Z,9.75
2023-05-16T02:43:08.268Z,9.80
2023-05-16T02:46:27.376Z,9.77
2023-05-16T02:49:35.668Z,9.66
2023-05-16T02:52:43.734Z,9.63
2023-05-16T02:55:51.856Z,9.65
2023-05-16T02:59:01.697Z,9.66
2023-05-16T03:02:11.386Z,9.72
2023-05-16T03:05:19.788Z,9.54
2023-05-16T03:08:27.932Z,9.56
2023-05-16T03:11:40.842Z,9.54
2023-05-16T03:14:49.232Z,9.55
2023-05-16T03:18:00.131Z,9.60
2023-05-16T03:21:10.478Z,9.67
2023-05-16T03:24:18.757Z,9.68
2023-05-16T03:27:28.799Z,9.68
2023-05-16T03:30:37.518Z,9.69
2023-05-16T03:33:46.953Z,9.82
2023-05-16T03:36:55.181Z,9.91
2023-05-16T03:40:05.877Z,9.81
2023-05-16T03:43:13.974Z,9.67
2023-05-16T03:46:22.210Z,9.63
2023-05-16T03:49:31.742Z,9.67
2023-05-16T03:52:39.815Z,9.68
2023-05-16T03:55:48.847Z,9.73
2023-05-16T03:58:57.635Z,9.76
2023-05-16T04:02:06.232Z,9.81
2023-05-16T04:05:15.872Z,9.87
2023-05-16T04:08:24.149Z,9.92
2023-05-16T04:11:32.461Z,9.82
2023-05-16T04:14:40.878Z,9.78
2023-05-16T04:17:49.076Z,9.73
2023-05-16T04:20:58.541Z,9.86
2023-05-16T04:24:08.286Z,9.91
2023-05-16T04:27:16.369Z,9.84
2023-05-16T04:30:24.442Z,9.86
2023-05-16T04:33:32.577Z,9.88
2023-05-16T04:36:42.120Z,9.84
2023-05-16T04:39:50.516Z,9.97
2023-05-16T04:42:58.650Z,9.87
2023-05-16T04:46:07.562Z,9.91
2023-05-16T04:49:15.770Z,10.01
2023-05-16T04:52:25.310Z,10.11
2023-05-16T04:55:33.406Z,9.99
2023-05-16T04:58:42.911Z,10.04
2023-05-16T05:01:51.172Z,10.09
2023-05-16T05:04:59.467Z,10.09
2023-05-16T05:08:09.717Z,10.08
2023-05-16T05:11:17.868Z,10.11
2023-05-16T05:14:26.257Z,10.10
2023-05-16T05:17:34.520Z,10.15
2023-05-16T05:20:43.554Z,10.12
2023-05-16T05:23:53.183Z,10.22
2023-05-16T05:27:01.269Z,10.22
2023-05-16T05:30:11.374Z,10.15
2023-05-16T05:33:19.737Z,10.16
2023-05-16T05:36:27.958Z,10.27
2023-05-16T05:39:37.377Z,10.28
2023-05-16T05:42:47.066Z,10.28
2023-05-16T05:45:55.956Z,10.40
2023-05-16T05:49:04.532Z,10.40
2023-05-16T05:52:12.693Z,10.47
2023-05-16T05:55:22.223Z,10.45
2023-05-16T05:58:30.678Z,10.46
2023-05-16T06:01:39.636Z,10.43
2023-05-16T06:04:47.837Z,10.42
2023-05-16T06:07:56.039Z,10.41
2023-05-16T06:11:05.605Z,10.48
2023-05-16T06:14:15.157Z,10.55
2023-05-16T06:17:23.670Z,10.55
2023-05-16T06:20:31.928Z,10.59
2023-05-16T06:23:40.102Z,10.50
2023-05-16T06:26:51.026Z,10.60
2023-05-16T06:29:59.440Z,10.45
2023-05-16T06:33:07.534Z,10.42
2023-05-16T06:36:15.706Z,10.48
2023-05-16T06:39:23.793Z,10.52
2023-05-16T06:42:33.266Z,10.46
2023-05-16T06:45:41.572Z,10.44
2023-05-16T06:48:49.711Z,10.48
2023-05-16T06:51:57.941Z,10.53
2023-05-16T06:55:07.030Z,10.56
2023-05-16T06:58:16.636Z,10.73
2023-05-16T07:01:24.878Z,10.86
2023-05-16T07:04:34.439Z,10.84
2023-05-16T07:07:42.830Z,10.75
2023-05-16T07:10:51.015Z,10.65
2023-05-16T07:14:00.716Z,10.60
2023-05-16T07:17:09.212Z,10.63
2023-05-16T07:20:17.540Z,10.51
2023-05-16T07:23:25.936Z,10.58
2023-05-16T07:26:34.278Z,10.54
2023-05-16T07:29:43.774Z,10.57
2023-05-16T07:32:54.208Z,10.64
2023-05-16T07:36:15.487Z,10.60
2023-05-16T07:39:24.719Z,10.67
2023-05-16T07:42:33.131Z,10.77
2023-05-16T07:45:42.889Z,10.93
2023-05-16T07:48:51.565Z,10.96
2023-05-16T07:51:59.733Z,11.07
2023-05-16T07:55:09.770Z,11.17
2023-05-16T07:58:18.132Z,11.39
2023-05-16T08:01:27.753Z,11.37
2023-05-16T08:04:36.167Z,11.30
2023-05-16T08:07:44.376Z,11.39
2023-05-16T08:10:52.516Z,11.48
2023-05-16T08:14:00.921Z,11.53
2023-05-16T08:17:10.443Z,11.52
2023-05-16T08:20:18.704Z,11.59
2023-05-16T08:23:26.874Z,11.62
2023-05-16T08:26:35.672Z,11.81
2023-05-16T08:29:44.310Z,12.47
2023-05-16T08:32:54.156Z,12.82
2023-05-16T08:36:07.004Z,13.32
2023-05-16T08:39:15.320Z,13.66
2023-05-16T08:42:23.532Z,14.24
2023-05-16T08:45:35.361Z,14.44
2023-05-16T08:48:48.532Z,15.02
2023-05-16T08:51:59.587Z,15.00
2023-05-16T08:55:11.983Z,15.73
2023-05-16T08:58:21.790Z,16.00
2023-05-16T09:01:31.293Z,13.46
2023-05-16T09:04:44.402Z,14.03
2023-05-16T09:07:52.790Z,15.08
2023-05-16T09:11:01.755Z,13.84
2023-05-16T09:14:09.891Z,13.88
2023-05-16T09:17:20.542Z,14.76
2023-05-16T09:20:35.532Z,13.31
2023-05-16T09:23:46.516Z,13.21
2023-05-16T09:26:55.928Z,12.46
2023-05-16T09:30:04.667Z,12.37
2023-05-16T09:33:13.621Z,12.39
2023-05-16T09:36:23.155Z,12.82
2023-05-16T09:39:31.299Z,13.06
2023-05-16T09:42:40.334Z,12.92
2023-05-16T09:45:50.372Z,13.15
2023-05-16T09:48:58.759Z,12.55
2023-05-16T09:52:09.383Z,12.53
2023-05-16T09:55:18.976Z,12.52
2023-05-16T09:58:31.243Z,12.72
2023-05-16T10:01:39.776Z,13.20
2023-05-16T10:04:48.093Z,13.22
2023-05-16T10:07:58.736Z,12.58
2023-05-16T10:11:07.798Z,12.25
2023-05-16T10:14:19.988Z,12.07
2023-05-16T10:17:32.436Z,12.24
2023-05-16T10:20:45.391Z,12.30
2023-05-16T10:23:59.749Z,12.40
2023-05-16T10:27:08.416Z,12.98
2023-05-16T10:30:17.629Z,13.48
2023-05-16T10:33:26.142Z,13.76
2023-05-16T10:36:35.737Z,13.07
2023-05-16T10:39:46.322Z,12.72
2023-05-16T10:42:58.414Z,13.10
2023-05-16T10:46:10.247Z,12.83
2023-05-16T10:49:24.083Z,13.24
2023-05-16T10:52:35.359Z,13.30
2023-05-16T10:55:52.347Z,13.47
2023-05-16T10:59:13.089Z,12.94
2023-05-16T11:02:28.607Z,12.79
2023-05-16T11:05:37.145Z,13.06
2023-05-16T11:09:06.454Z,13.15
2023-05-16T11:12:16.204Z,13.27
2023-05-16T11:15:30.320Z,13.18
2023-05-16T11:18:52.040Z,13.58
2023-05-16T11:22:22.598Z,13.49
2023-05-16T11:25:41.010Z,14.16
2023-05-16T11:28:54.091Z,14.22
2023-05-16T11:32:04.371Z,14.83
2023-05-16T11:35:15.627Z,13.79
2023-05-16T11:38:23.754Z,13.39
2023-05-16T11:41:33.857Z,13.05
2023-05-16T11:44:43.368Z,13.58
2023-05-16T11:47:51.606Z,13.38
2023-05-16T11:50:59.848Z,13.17
2023-05-16T11:54:10.477Z,13.09
2023-05-16T11:57:20.330Z,12.82
2023-05-16T12:00:30.037Z,12.58
2023-05-16T12:03:39.307Z,12.55
2023-05-16T12:07:01.676Z,12.42
2023-05-16T12:10:12.159Z,12.08
2023-05-16T12:13:22.693Z,12.13
2023-05-16T12:16:32.939Z,12.07
2023-05-16T12:19:41.285Z,11.88
2023-05-16T12:22:49.434Z,11.88
2023-05-16T12:26:00.931Z,12.11
2023-05-16T12:29:11.385Z,11.98
2023-05-16T12:32:21.609Z,11.77
2023-05-16T12:35:33.450Z,11.56
2023-05-16T12:38:42.158Z,11.51
2023-05-16T12:41:50.549Z,11.51
2023-05-16T12:44:58.750Z,11.58
2023-05-16T12:48:13.969Z,11.54
2023-05-16T12:51:22.153Z,11.57
2023-05-16T12:54:30.242Z,11.60
2023-05-16T12:57:39.341Z,11.59
2023-05-16T13:00:48.611Z,11.46
2023-05-16T13:03:58.933Z,11.95
2023-05-16T13:07:07.172Z,12.08
2023-05-16T13:10:15.319Z,12.14
2023-05-16T13:13:35.566Z,12.06
2023-05-16T13:16:44.911Z,11.92
2023-05-16T13:19:54.494Z,11.86
2023-05-16T13:23:02.664Z,12.02
2023-05-16T13:26:10.823Z,12.12
2023-05-16T13:29:19.002Z,12.24
2023-05-16T13:32:27.719Z,12.51
2023-05-16T13:35:37.273Z,12.55
2023-05-16T13:38:45.373Z,12.54
2023-05-16T13:41:54.216Z,12.67
2023-05-16T13:45:02.335Z,12.63
2023-05-16T13:48:11.478Z,12.85
2023-05-16T13:51:20.983Z,13.03
2023-05-16T13:54:29.391Z,12.81
2023-05-16T13:57:37.612Z,12.61
2023-05-16T14:00:46.308Z,12.49
2023-05-16T14:03:54.684Z,12.45
2023-05-16T14:07:04.327Z,12.49
2023-05-16T14:10:12.789Z,11.59
2023-05-16T14:13:21.155Z,11.36
2023-05-16T14:16:31.105Z,10.92
2023-05-16T14:19:39.365Z,11.05
2023-05-16T14:22:48.903Z,10.93
2023-05-16T14:25:57.003Z,10.95
2023-05-16T14:29:05.212Z,11.02
2023-05-16T14:32:13.929Z,11.18
2023-05-16T14:35:22.216Z,11.07
2023-05-16T14:38:31.756Z,11.04
2023-05-16T14:41:40.130Z,10.92
2023-05-16T14:44:48.335Z,10.80
2023-05-16T14:47:56.690Z,10.77
2023-05-16T14:51:05.245Z,10.78
2023-05-16T14:54:15.018Z,10.78
2023-05-16T14:57:23.206Z,10.77
2023-05-16T15:00:32.112Z,10.65
2023-05-16T15:03:53.600Z,10.72
2023-05-16T15:07:03.210Z,10.72
2023-05-16T15:10:12.978Z,10.55
2023-05-16T15:13:21.251Z,10.52
2023-05-16T15:16:31.217Z,10.41
2023-05-16T15:19:39.485Z,10.44
2023-05-16T15:22:49.255Z,10.30
2023-05-16T15:25:59.174Z,10.33
2023-05-16T15:29:07.339Z,10.41
2023-05-16T15:32:17.095Z,10.41
2023-05-16T15:35:26.447Z,10.47
2023-05-16T15:38:36.248Z,10.50
2023-05-16T15:42:08.501Z,10.56
2023-05-16T15:45:14.481Z,10.54
2023-05-16T15:48:22.706Z,10.54
2023-05-16T15:51:30.912Z,10.59
2023-05-16T15:54:39.023Z,10.59
2023-05-16T15:57:48.595Z,10.57
2023-05-16T16:00:57.049Z,10.65
2023-05-16T16:04:05.609Z,10.77
2023-05-16T16:07:14.373Z,10.87
2023-05-16T16:10:22.749Z,10.90
2023-05-16T16:13:34.734Z,10.87
2023-05-16T16:16:43.877Z,10.87
2023-05-16T16:19:52.522Z,10.91
2023-05-16T16:23:01.820Z,10.91
2023-05-16T16:26:10.458Z,10.97
2023-05-16T16:29:21.238Z,10.94
2023-05-16T16:32:30.331Z,10.86
2023-05-16T16:35:39.563Z,10.87
2023-05-16T16:38:47.984Z,10.92
2023-05-16T16:41:56.811Z,10.93
2023-05-16T16:45:08.144Z,10.93
2023-05-16T16:48:16.501Z,10.97
2023-05-16T16:51:24.705Z,10.85
2023-05-16T16:54:32.902Z,10.92
2023-05-16T16:57:42.752Z,10.93
2023-05-16T17:00:53.054Z,10.96
2023-05-16T17:04:11.322Z,10.76
2023-05-16T17:07:19.971Z,10.87
2023-05-16T17:10:28.577Z,10.84
2023-05-16T17:13:37.771Z,10.68
2023-05-16T17:16:48.048Z,10.51
2023-05-16T17:19:57.784Z,10.40
2023-05-16T17:23:06.494Z,10.31
2023-05-16T17:26:16.641Z,10.22
2023-05-16T17:29:25.641Z,10.13
2023-05-16T17:32:36.370Z,10.13
2023-05-16T17:35:45.135Z,10.07
2023-05-16T17:38:54.081Z,10.08
2023-05-16T17:42:02.610Z,10.09
2023-05-16T17:45:14.798Z,10.08
2023-05-16T17:48:24.777Z,10.06
2023-05-16T17:51:47.752Z,10.12
2023-05-16T17:54:56.251Z,10.13
2023-05-16T17:58:06.543Z,10.14
2023-05-16T18:01:16.850Z,10.12
2023-05-16T18:04:27.686Z,10.09
2023-05-16T18:07:36.259Z,10.11
2023-05-16T18:10:52.024Z,10.16
2023-05-16T18:14:02.280Z,10.24
2023-05-16T18:17:10.696Z,10.22
2023-05-16T18:20:21.696Z,10.29
2023-05-16T18:23:31.905Z,10.29
2023-05-16T18:26:40.777Z,10.27
2023-05-16T18:29:49.164Z,10.27
2023-05-16T18:32:58.384Z,10.29
2023-05-16T18:36:11.009Z,10.24
2023-05-16T18:39:20.736Z,10.23
2023-05-16T18:42:30.086Z,10.24
2023-05-16T18:45:39.553Z,10.16
2023-05-16T18:48:48.111Z,10.21
2023-05-16T18:51:58.187Z,10.17
2023-05-16T18:55:08.272Z,10.12
2023-05-16T18:58:16.926Z,10.15
2023-05-16T19:01:25.887Z,10.13
2023-05-16T19:04:34.749Z,10.13
2023-05-16T19:07:45.828Z,10.15
2023-05-16T19:10:54.947Z,10.13
2023-05-16T19:14:03.980Z,10.07
2023-05-16T19:17:12.451Z,10.06
2023-05-16T19:20:21.669Z,10.06
2023-05-16T19:23:32.703Z,10.03
2023-05-16T19:26:41.772Z,9.99
2023-05-16T19:29:50.690Z,10.04
2023-05-16T19:32:59.860Z,9.97
2023-05-16T19:36:10.058Z,9.96
2023-05-16T19:39:20.389Z,10.06
2023-05-16T19:42:30.359Z,10.06
2023-05-16T19:45:39.523Z,10.06
2023-05-16T19:48:51.673Z,9.99
2023-05-16T19:52:02.977Z,10.02
2023-05-16T19:55:13.360Z,9.91
2023-05-16T19:58:23.224Z,9.76
2023-05-16T20:01:31.894Z,9.55
2023-05-16T20:04:40.328Z,9.54
2023-05-16T20:07:49.138Z,9.44
2023-05-16T20:10:58.833Z,9.45
2023-05-16T20:14:09.007Z,9.32
2023-05-16T20:17:18.028Z,9.20
2023-05-16T20:20:27.128Z,9.15
2023-05-16T20:23:36.288Z,9.16
2023-05-16T20:26:46.172Z,9.11
2023-05-16T20:29:56.961Z,9.07
2023-05-16T20:33:05.647Z,9.06
2023-05-16T20:36:14.408Z,9.03
2023-05-16T20:39:23.004Z,9.08
2023-05-16T20:42:33.505Z,9.03
2023-05-16T20:45:41.679Z,8.99
2023-05-16T20:48:50.547Z,8.84
2023-05-16T20:51:59.488Z,8.96
2023-05-16T20:55:11.274Z,8.96
2023-05-16T20:58:24.060Z,8.89
2023-05-16T21:01:33.397Z,8.88
2023-05-16T21:04:41.819Z,8.80
2023-05-16T21:07:50.462Z,8.86
2023-05-16T21:10:59.145Z,8.87
2023-05-16T21:14:09.158Z,8.78
2023-05-16T21:17:17.609Z,8.78
2023-05-16T21:20:28.549Z,8.75
2023-05-16T21:23:36.932Z,8.72
2023-05-16T21:26:45.725Z,8.74
2023-05-16T21:29:55.744Z,8.70
2023-05-16T21:33:04.174Z,8.60
2023-05-16T21:36:12.809Z,8.61
2023-05-16T21:39:21.332Z,8.64
2023-05-16T21:42:29.875Z,8.54
2023-05-16T21:45:40.218Z,8.61
2023-05-16T21:48:48.748Z,8.56
2023-05-16T21:51:57.424Z,8.50
2023-05-16T21:55:09.530Z,8.49
2023-05-16T21:58:19.162Z,8.56
2023-05-16T22:01:29.659Z,8.57
2023-05-16T22:04:40.971Z,8.53
2023-05-16T22:07:49.315Z,8.36
2023-05-16T22:10:59.046Z,8.45
2023-05-16T22:14:07.244Z,8.39
2023-05-16T22:17:18.043Z,8.40
2023-05-16T22:20:27.788Z,8.34
2023-05-16T22:23:36.129Z,8.29
2023-05-16T22:26:44.627Z,8.34
2023-05-16T22:29:52.810Z,8.23
2023-05-16T22:33:03.759Z,8.27
2023-05-16T22:36:11.984Z,8.19
2023-05-16T22:39:20.730Z,8.12
2023-05-16T22:42:28.976Z,8.09
2023-05-16T22:45:37.120Z,8.07
2023-05-16T22:48:46.984Z,8.07
2023-05-16T22:51:55.551Z,8.05
2023-05-16T22:55:04.314Z,8.04
2023-05-16T22:58:12.492Z,8.05
2023-05-16T23:01:21.998Z,8.01
2023-05-16T23:04:31.730Z,7.96
2023-05-16T23:07:39.935Z,7.95
2023-05-16T23:10:48.439Z,7.88
2023-05-16T23:13:56.720Z,7.80
2023-05-16T23:17:05.406Z,7.76
2023-05-16T23:20:16.034Z,7.72
2023-05-16T23:23:24.887Z,7.60
2023-05-16T23:26:33.024Z,7.62
2023-05-16T23:29:41.492Z,7.58
2023-05-16T23:32:51.463Z,7.58
2023-05-16T23:36:01.302Z,7.56
2023-05-16T23:39:09.702Z,7.65
2023-05-16T23:42:18.038Z,7.70
2023-05-16T23:45:27.996Z,7.70
2023-05-16T23:48:36.823Z,7.71
2023-05-16T23:51:57.365Z,7.69
2023-05-16T23:55:07.649Z,7.66
2023-05-16T23:58:16.120Z,7.63
